sensor_id;sensor_type;location;lat;lon;timestamp;pressure;altitude;pressure_sealevel;temperature;humidity
71915;BME280;60387;49.994;14.660;2023-12-22T00:01:26;95341.09;;;8.32;54.75
71915;BME280;60387;49.994;14.660;2023-12-22T00:03:59;95352.75;;;8.36;54.53
71915;BME280;60387;49.994;14.660;2023-12-22T00:06:33;95356.69;;;8.39;54.68
71915;BME280;60387;49.994;14.660;2023-12-22T00:09:06;95350.94;;;8.40;54.38
71915;BME280;60387;49.994;14.660;2023-12-22T00:11:39;95347.47;;;8.40;54.78
71915;BME280;60387;49.994;14.660;2023-12-22T00:14:13;95355.13;;;8.38;54.64
71915;BME280;60387;49.994;14.660;2023-12-22T00:16:46;95356.59;;;8.35;54.50
71915;BME280;60387;49.994;14.660;2023-12-22T00:19:19;95342.56;;;8.30;54.47
71915;BME280;60387;49.994;14.660;2023-12-22T00:21:53;95359.72;;;8.37;54.43
71915;BME280;60387;49.994;14.660;2023-12-22T00:24:26;95355.44;;;8.36;54.18
71915;BME280;60387;49.994;14.660;2023-12-22T00:26:59;95358.16;;;8.36;54.45
71915;BME280;60387;49.994;14.660;2023-12-22T00:29:32;95351.19;;;8.35;54.05
71915;BME280;60387;49.994;14.660;2023-12-22T00:32:06;95354.31;;;8.37;53.97
71915;BME280;60387;49.994;14.660;2023-12-22T00:34:39;95341.19;;;8.36;54.13
71915;BME280;60387;49.994;14.660;2023-12-22T00:37:12;95347.47;;;8.40;53.71
71915;BME280;60387;49.994;14.660;2023-12-22T00:39:46;95350.16;;;8.40;53.59
71915;BME280;60387;49.994;14.660;2023-12-22T00:42:19;95351.38;;;8.42;53.59
71915;BME280;60387;49.994;14.660;2023-12-22T00:44:52;95355.31;;;8.45;53.30
71915;BME280;60387;49.994;14.660;2023-12-22T00:47:25;95346.75;;;8.43;52.78
71915;BME280;60387;49.994;14.660;2023-12-22T00:49:59;95369.25;;;8.47;52.86
71915;BME280;60387;49.994;14.660;2023-12-22T00:52:32;95368.44;;;8.46;52.31
71915;BME280;60387;49.994;14.660;2023-12-22T00:55:05;95370.16;;;8.39;51.79
71915;BME280;60387;49.994;14.660;2023-12-22T00:57:39;95381.81;;;8.43;52.11
71915;BME280;60387;49.994;14.660;2023-12-22T01:00:12;95375.66;;;8.42;52.19
71915;BME280;60387;49.994;14.660;2023-12-22T01:02:46;95389.16;;;8.42;52.15
71915;BME280;60387;49.994;14.660;2023-12-22T01:05:19;95382.28;;;8.45;51.90
71915;BME280;60387;49.994;14.660;2023-12-22T01:07:52;95391.50;;;8.44;52.45
71915;BME280;60387;49.994;14.660;2023-12-22T01:10:25;95401.59;;;8.47;51.97
71915;BME280;60387;49.994;14.660;2023-12-22T01:12:59;95397.34;;;8.46;52.44
71915;BME280;60387;49.994;14.660;2023-12-22T01:15:32;95401.28;;;8.48;52.03
71915;BME280;60387;49.994;14.660;2023-12-22T01:18:05;95402.38;;;8.47;51.86
71915;BME280;60387;49.994;14.660;2023-12-22T01:20:38;95390.03;;;8.46;52.10
71915;BME280;60387;49.994;14.660;2023-12-22T01:23:12;95404.19;;;8.43;51.72
71915;BME280;60387;49.994;14.660;2023-12-22T01:25:45;95401.41;;;8.40;51.27
71915;BME280;60387;49.994;14.660;2023-12-22T01:28:18;95395.13;;;8.36;51.26
71915;BME280;60387;49.994;14.660;2023-12-22T01:30:51;95398.16;;;8.34;51.65
71915;BME280;60387;49.994;14.660;2023-12-22T01:33:25;95415.69;;;8.40;51.79
71915;BME280;60387;49.994;14.660;2023-12-22T01:35:58;95415.88;;;8.47;51.61
71915;BME280;60387;49.994;14.660;2023-12-22T01:38:31;95424.31;;;8.46;51.46
71915;BME280;60387;49.994;14.660;2023-12-22T01:41:05;95423.97;;;8.47;51.51
71915;BME280;60387;49.994;14.660;2023-12-22T01:43:38;95425.56;;;8.48;51.08
71915;BME280;60387;49.994;14.660;2023-12-22T01:46:11;95422.38;;;8.46;50.94
71915;BME280;60387;49.994;14.660;2023-12-22T01:48:46;95421.97;;;8.44;50.75
71915;BME280;60387;49.994;14.660;2023-12-22T01:51:19;95415.44;;;8.45;50.89
71915;BME280;60387;49.994;14.660;2023-12-22T01:53:53;95417.00;;;8.46;50.99
71915;BME280;60387;49.994;14.660;2023-12-22T01:56:27;95418.22;;;8.49;51.20
71915;BME280;60387;49.994;14.660;2023-12-22T01:59:01;95415.00;;;8.43;50.60
71915;BME280;60387;49.994;14.660;2023-12-22T02:01:35;95416.91;;;8.43;50.89
71915;BME280;60387;49.994;14.660;2023-12-22T02:04:08;95406.25;;;8.34;51.09
71915;BME280;60387;49.994;14.660;2023-12-22T02:06:42;95427.69;;;8.43;51.07
71915;BME280;60387;49.994;14.660;2023-12-22T02:09:15;95434.31;;;8.45;51.54
71915;BME280;60387;49.994;14.660;2023-12-22T02:11:48;95422.66;;;8.41;50.41
71915;BME280;60387;49.994;14.660;2023-12-22T02:14:22;95424.22;;;8.42;50.42
71915;BME280;60387;49.994;14.660;2023-12-22T02:22:11;95426.88;;;8.27;50.47
71915;BME280;60387;49.994;14.660;2023-12-22T02:24:45;95424.25;;;8.30;50.42
71915;BME280;60387;49.994;14.660;2023-12-22T02:27:32;95422.00;;;8.32;50.24
71915;BME280;60387;49.994;14.660;2023-12-22T02:30:14;95400.66;;;8.27;50.45
71915;BME280;60387;49.994;14.660;2023-12-22T02:32:50;95401.09;;;8.29;50.40
71915;BME280;60387;49.994;14.660;2023-12-22T02:35:26;95407.63;;;8.28;50.07
71915;BME280;60387;49.994;14.660;2023-12-22T02:38:00;95385.63;;;8.26;50.21
71915;BME280;60387;49.994;14.660;2023-12-22T02:40:35;95398.56;;;8.21;50.28
71915;BME280;60387;49.994;14.660;2023-12-22T02:43:09;95401.69;;;8.23;50.28
71915;BME280;60387;49.994;14.660;2023-12-22T02:45:43;95406.22;;;8.19;50.85
71915;BME280;60387;49.994;14.660;2023-12-22T02:48:16;95406.66;;;8.21;50.43
71915;BME280;60387;49.994;14.660;2023-12-22T02:50:49;95410.13;;;8.21;50.32
71915;BME280;60387;49.994;14.660;2023-12-22T02:53:22;95405.72;;;8.17;50.53
71915;BME280;60387;49.994;14.660;2023-12-22T02:55:56;95396.88;;;8.04;50.63
71915;BME280;60387;49.994;14.660;2023-12-22T02:58:29;95413.25;;;8.11;50.18
71915;BME280;60387;49.994;14.660;2023-12-22T03:01:02;95410.13;;;8.09;50.41
71915;BME280;60387;49.994;14.660;2023-12-22T03:03:36;95411.94;;;8.05;50.28
71915;BME280;60387;49.994;14.660;2023-12-22T03:06:09;95412.88;;;7.97;49.54
71915;BME280;60387;49.994;14.660;2023-12-22T03:08:42;95417.25;;;7.90;50.05
71915;BME280;60387;49.994;14.660;2023-12-22T03:11:16;95417.50;;;7.85;49.85
71915;BME280;60387;49.994;14.660;2023-12-22T03:13:49;95405.25;;;7.75;50.02
71915;BME280;60387;49.994;14.660;2023-12-22T03:16:22;95422.31;;;7.79;50.10
71915;BME280;60387;49.994;14.660;2023-12-22T03:18:55;95431.06;;;7.76;50.27
71915;BME280;60387;49.994;14.660;2023-12-22T03:21:29;95432.19;;;7.75;50.00
71915;BME280;60387;49.994;14.660;2023-12-22T03:24:02;95417.84;;;7.71;50.28
71915;BME280;60387;49.994;14.660;2023-12-22T03:26:35;95425.13;;;7.71;50.09
71915;BME280;60387;49.994;14.660;2023-12-22T03:29:09;95439.16;;;7.76;50.32
71915;BME280;60387;49.994;14.660;2023-12-22T03:31:42;95444.22;;;7.78;49.96
71915;BME280;60387;49.994;14.660;2023-12-22T03:34:15;95434.22;;;7.78;50.31
71915;BME280;60387;49.994;14.660;2023-12-22T03:36:48;95433.78;;;7.76;50.14
71915;BME280;60387;49.994;14.660;2023-12-22T03:39:22;95436.91;;;7.78;49.60
71915;BME280;60387;49.994;14.660;2023-12-22T03:41:55;95442.28;;;7.78;49.74
71915;BME280;60387;49.994;14.660;2023-12-22T03:44:28;95437.59;;;7.75;49.68
71915;BME280;60387;49.994;14.660;2023-12-22T03:47:01;95445.56;;;7.72;49.62
71915;BME280;60387;49.994;14.660;2023-12-22T03:49:35;95434.66;;;7.68;49.36
71915;BME280;60387;49.994;14.660;2023-12-22T03:52:08;95424.56;;;7.65;49.12
71915;BME280;60387;49.994;14.660;2023-12-22T03:54:41;95429.06;;;7.61;49.54
71915;BME280;60387;49.994;14.660;2023-12-22T03:57:15;95411.22;;;7.57;49.08
71915;BME280;60387;49.994;14.660;2023-12-22T03:59:48;95411.09;;;7.53;49.16
71915;BME280;60387;49.994;14.660;2023-12-22T04:02:21;95422.88;;;7.49;49.07
71915;BME280;60387;49.994;14.660;2023-12-22T04:04:54;95433.22;;;7.47;49.27
71915;BME280;60387;49.994;14.660;2023-12-22T04:07:28;95431.66;;;7.46;49.12
71915;BME280;60387;49.994;14.660;2023-12-22T04:10:01;95430.09;;;7.45;49.25
71915;BME280;60387;49.994;14.660;2023-12-22T04:12:34;95420.44;;;7.44;49.21
71915;BME280;60387;49.994;14.660;2023-12-22T04:15:08;95425.56;;;7.49;49.00
71915;BME280;60387;49.994;14.660;2023-12-22T04:17:41;95430.97;;;7.49;48.81
71915;BME280;60387;49.994;14.660;2023-12-22T04:20:14;95408.66;;;7.48;48.87
71915;BME280;60387;49.994;14.660;2023-12-22T04:22:47;95401.69;;;7.47;48.98
71915;BME280;60387;49.994;14.660;2023-12-22T04:25:21;95422.31;;;7.43;48.94
71915;BME280;60387;49.994;14.660;2023-12-22T04:27:54;95417.94;;;7.39;48.87
71915;BME280;60387;49.994;14.660;2023-12-22T04:30:27;95426.03;;;7.39;48.92
71915;BME280;60387;49.994;14.660;2023-12-22T04:33:00;95427.84;;;7.35;49.15
71915;BME280;60387;49.994;14.660;2023-12-22T04:35:34;95413.25;;;7.36;49.19
71915;BME280;60387;49.994;14.660;2023-12-22T04:38:07;95400.47;;;7.33;48.92
71915;BME280;60387;49.994;14.660;2023-12-22T04:40:41;95406.19;;;7.31;49.39
71915;BME280;60387;49.994;14.660;2023-12-22T04:43:14;95402.56;;;7.27;49.61
71915;BME280;60387;49.994;14.660;2023-12-22T04:45:47;95407.31;;;7.30;49.65
71915;BME280;60387;49.994;14.660;2023-12-22T04:48:20;95390.25;;;7.26;49.74
71915;BME280;60387;49.994;14.660;2023-12-22T04:50:54;95395.06;;;7.21;49.97
71915;BME280;60387;49.994;14.660;2023-12-22T04:53:27;95396.31;;;7.23;49.84
71915;BME280;60387;49.994;14.660;2023-12-22T04:56:00;95403.25;;;7.24;50.06
71915;BME280;60387;49.994;14.660;2023-12-22T04:58:34;95402.00;;;7.22;50.13
71915;BME280;60387;49.994;14.660;2023-12-22T05:01:07;95400.78;;;7.19;50.17
71915;BME280;60387;49.994;14.660;2023-12-22T05:03:40;95398.88;;;7.20;50.45
71915;BME280;60387;49.994;14.660;2023-12-22T05:06:13;95406.97;;;7.20;50.41
71915;BME280;60387;49.994;14.660;2023-12-22T05:08:46;95404.25;;;7.20;50.33
71915;BME280;60387;49.994;14.660;2023-12-22T05:11:20;95403.03;;;7.17;50.54
71915;BME280;60387;49.994;14.660;2023-12-22T05:13:53;95409.97;;;7.18;50.36
71915;BME280;60387;49.994;14.660;2023-12-22T05:16:26;95425.34;;;7.18;50.69
71915;BME280;60387;49.994;14.660;2023-12-22T05:19:00;95427.16;;;7.26;50.41
71915;BME280;60387;49.994;14.660;2023-12-22T05:21:33;95436.44;;;7.28;50.63
71915;BME280;60387;49.994;14.660;2023-12-22T05:24:06;95431.06;;;7.28;50.62
71915;BME280;60387;49.994;14.660;2023-12-22T05:26:40;95438.50;;;7.31;51.03
71915;BME280;60387;49.994;14.660;2023-12-22T05:29:13;95434.69;;;7.32;51.90
71915;BME280;60387;49.994;14.660;2023-12-22T05:31:46;95440.06;;;7.32;52.49
71915;BME280;60387;49.994;14.660;2023-12-22T05:34:19;95440.06;;;7.32;52.55
71915;BME280;60387;49.994;14.660;2023-12-22T05:36:53;95424.78;;;7.24;53.12
71915;BME280;60387;49.994;14.660;2023-12-22T05:39:26;95434.88;;;7.27;55.26
71915;BME280;60387;49.994;14.660;2023-12-22T05:41:59;95432.06;;;7.24;56.00
71915;BME280;60387;49.994;14.660;2023-12-22T05:44:32;95441.38;;;7.14;56.68
71915;BME280;60387;49.994;14.660;2023-12-22T05:47:06;95438.13;;;7.09;56.42
71915;BME280;60387;49.994;14.660;2023-12-22T05:49:40;95450.09;;;6.99;57.38
71915;BME280;60387;49.994;14.660;2023-12-22T05:52:13;95448.53;;;6.98;56.52
71915;BME280;60387;49.994;14.660;2023-12-22T05:54:46;95456.59;;;6.98;57.29
71915;BME280;60387;49.994;14.660;2023-12-22T05:57:20;95442.91;;;6.91;56.84
71915;BME280;60387;49.994;14.660;2023-12-22T05:59:53;95462.88;;;6.90;57.45
71915;BME280;60387;49.994;14.660;2023-12-22T06:02:26;95450.66;;;6.93;56.32
71915;BME280;60387;49.994;14.660;2023-12-22T06:05:00;95456.47;;;6.95;56.89
71915;BME280;60387;49.994;14.660;2023-12-22T06:07:33;95434.97;;;6.95;56.97
71915;BME280;60387;49.994;14.660;2023-12-22T06:10:06;95439.66;;;6.86;56.25
71915;BME280;60387;49.994;14.660;2023-12-22T06:12:40;95451.44;;;6.93;56.46
71915;BME280;60387;49.994;14.660;2023-12-22T06:15:13;95457.16;;;6.92;56.74
71915;BME280;60387;49.994;14.660;2023-12-22T06:17:46;95440.97;;;6.80;57.07
71915;BME280;60387;49.994;14.660;2023-12-22T06:20:20;95456.34;;;6.79;56.67
71915;BME280;60387;49.994;14.660;2023-12-22T06:22:53;95449.28;;;6.87;56.38
71915;BME280;60387;49.994;14.660;2023-12-22T06:25:26;95449.84;;;6.80;56.58
71915;BME280;60387;49.994;14.660;2023-12-22T06:27:59;95458.94;;;6.88;56.20
71915;BME280;60387;49.994;14.660;2023-12-22T06:30:33;95458.59;;;6.77;56.12
71915;BME280;60387;49.994;14.660;2023-12-22T06:33:06;95450.53;;;6.89;56.01
71915;BME280;60387;49.994;14.660;2023-12-22T06:35:39;95472.81;;;6.90;56.09
71915;BME280;60387;49.994;14.660;2023-12-22T06:38:12;95467.34;;;6.86;55.73
71915;BME280;60387;49.994;14.660;2023-12-22T06:40:46;95467.81;;;6.88;56.41
71915;BME280;60387;49.994;14.660;2023-12-22T06:43:19;95479.00;;;6.90;56.90
71915;BME280;60387;49.994;14.660;2023-12-22T06:45:52;95477.00;;;6.87;57.25
71915;BME280;60387;49.994;14.660;2023-12-22T06:48:25;95491.09;;;6.84;57.02
71915;BME280;60387;49.994;14.660;2023-12-22T06:50:59;95489.25;;;6.76;57.95
71915;BME280;60387;49.994;14.660;2023-12-22T06:53:32;95509.09;;;6.72;58.38
71915;BME280;60387;49.994;14.660;2023-12-22T06:56:16;95513.25;;;6.69;58.46
71915;BME280;60387;49.994;14.660;2023-12-22T06:58:51;95500.72;;;6.53;58.96
71915;BME280;60387;49.994;14.660;2023-12-22T07:01:27;95516.72;;;6.49;58.32
71915;BME280;60387;49.994;14.660;2023-12-22T07:04:02;95525.78;;;6.45;58.42
71915;BME280;60387;49.994;14.660;2023-12-22T07:06:35;95531.00;;;6.41;58.46
71915;BME280;60387;49.994;14.660;2023-12-22T07:11:50;95536.75;;;6.40;58.31
71915;BME280;60387;49.994;14.660;2023-12-22T07:14:24;95535.50;;;6.37;58.60
71915;BME280;60387;49.994;14.660;2023-12-22T07:16:57;95526.31;;;6.38;59.16
71915;BME280;60387;49.994;14.660;2023-12-22T07:19:30;95536.06;;;6.43;58.93
71915;BME280;60387;49.994;14.660;2023-12-22T07:22:03;95534.28;;;6.47;58.70
71915;BME280;60387;49.994;14.660;2023-12-22T07:24:37;95542.97;;;6.52;58.17
71915;BME280;60387;49.994;14.660;2023-12-22T07:27:10;95534.25;;;6.55;58.80
71915;BME280;60387;49.994;14.660;2023-12-22T07:29:43;95516.97;;;6.56;58.76
71915;BME280;60387;49.994;14.660;2023-12-22T07:32:17;95531.69;;;6.59;58.37
71915;BME280;60387;49.994;14.660;2023-12-22T07:34:50;95525.31;;;6.63;58.38
71915;BME280;60387;49.994;14.660;2023-12-22T07:37:23;95528.13;;;6.67;58.70
71915;BME280;60387;49.994;14.660;2023-12-22T07:39:57;95517.38;;;6.67;58.10
71915;BME280;60387;49.994;14.660;2023-12-22T07:42:30;95527.03;;;6.68;57.60
71915;BME280;60387;49.994;14.660;2023-12-22T07:45:04;95511.19;;;6.66;58.02
71915;BME280;60387;49.994;14.660;2023-12-22T07:47:38;95527.59;;;6.73;57.71
71915;BME280;60387;49.994;14.660;2023-12-22T07:50:11;95518.84;;;6.76;58.12
71915;BME280;60387;49.994;14.660;2023-12-22T07:52:44;95530.09;;;6.78;57.58
71915;BME280;60387;49.994;14.660;2023-12-22T07:55:18;95520.09;;;6.79;57.63
71915;BME280;60387;49.994;14.660;2023-12-22T07:57:51;95528.63;;;6.81;57.62
71915;BME280;60387;49.994;14.660;2023-12-22T08:00:24;95511.72;;;6.80;56.95
71915;BME280;60387;49.994;14.660;2023-12-22T08:02:57;95545.13;;;6.79;57.04
71915;BME280;60387;49.994;14.660;2023-12-22T08:05:31;95533.81;;;6.86;57.23
71915;BME280;60387;49.994;14.660;2023-12-22T08:08:04;95547.97;;;6.95;57.10
71915;BME280;60387;49.994;14.660;2023-12-22T08:10:37;95529.41;;;7.02;57.05
71915;BME280;60387;49.994;14.660;2023-12-22T08:13:11;95553.34;;;7.15;56.86
71915;BME280;60387;49.994;14.660;2023-12-22T08:15:44;95557.84;;;7.23;56.32
71915;BME280;60387;49.994;14.660;2023-12-22T08:18:17;95543.38;;;7.28;56.17
71915;BME280;60387;49.994;14.660;2023-12-22T08:20:50;95551.25;;;7.33;56.15
71915;BME280;60387;49.994;14.660;2023-12-22T08:23:24;95535.31;;;7.40;55.97
71915;BME280;60387;49.994;14.660;2023-12-22T08:25:57;95545.91;;;7.45;55.79
71915;BME280;60387;49.994;14.660;2023-12-22T08:28:30;95552.97;;;7.49;55.49
71915;BME280;60387;49.994;14.660;2023-12-22T08:31:03;95555.00;;;7.52;55.39
71915;BME280;60387;49.994;14.660;2023-12-22T08:33:37;95546.25;;;7.55;55.14
71915;BME280;60387;49.994;14.660;2023-12-22T08:36:10;95549.97;;;7.63;54.92
71915;BME280;60387;49.994;14.660;2023-12-22T08:38:43;95552.09;;;7.69;54.79
71915;BME280;60387;49.994;14.660;2023-12-22T08:41:16;95560.84;;;7.66;54.61
71915;BME280;60387;49.994;14.660;2023-12-22T08:43:50;95576.09;;;7.62;55.07
71915;BME280;60387;49.994;14.660;2023-12-22T08:46:23;95601.47;;;7.49;55.65
71915;BME280;60387;49.994;14.660;2023-12-22T08:48:57;95590.59;;;7.25;56.87
71915;BME280;60387;49.994;14.660;2023-12-22T08:51:30;95605.16;;;7.12;56.78
71915;BME280;60387;49.994;14.660;2023-12-22T08:54:04;95590.28;;;6.94;57.39
71915;BME280;60387;49.994;14.660;2023-12-22T08:56:37;95568.41;;;6.75;58.04
71915;BME280;60387;49.994;14.660;2023-12-22T08:59:10;95579.44;;;6.62;58.79
71915;BME280;60387;49.994;14.660;2023-12-22T09:01:43;95577.22;;;6.43;58.88
71915;BME280;60387;49.994;14.660;2023-12-22T09:04:17;95594.56;;;6.46;58.76
71915;BME280;60387;49.994;14.660;2023-12-22T09:06:50;95591.63;;;6.39;58.87
71915;BME280;60387;49.994;14.660;2023-12-22T09:09:23;95605.25;;;6.34;58.92
71915;BME280;60387;49.994;14.660;2023-12-22T09:11:57;95612.72;;;6.28;59.01
71915;BME280;60387;49.994;14.660;2023-12-22T09:14:30;95605.63;;;6.24;59.56
71915;BME280;60387;49.994;14.660;2023-12-22T09:17:03;95617.66;;;6.18;59.37
71915;BME280;60387;49.994;14.660;2023-12-22T09:19:36;95605.38;;;6.09;59.65
71915;BME280;60387;49.994;14.660;2023-12-22T09:22:10;95624.19;;;6.09;59.66
71915;BME280;60387;49.994;14.660;2023-12-22T09:24:43;95633.22;;;6.04;60.34
71915;BME280;60387;49.994;14.660;2023-12-22T09:27:16;95637.22;;;5.98;60.17
71915;BME280;60387;49.994;14.660;2023-12-22T09:29:49;95626.78;;;5.97;60.24
71915;BME280;60387;49.994;14.660;2023-12-22T09:32:23;95620.13;;;6.03;60.35
71915;BME280;60387;49.994;14.660;2023-12-22T09:34:56;95621.94;;;6.19;61.04
71915;BME280;60387;49.994;14.660;2023-12-22T09:37:29;95631.34;;;6.33;60.34
71915;BME280;60387;49.994;14.660;2023-12-22T09:40:02;95632.69;;;6.48;60.18
71915;BME280;60387;49.994;14.660;2023-12-22T09:42:40;95632.25;;;6.66;60.48
71915;BME280;60387;49.994;14.660;2023-12-22T09:45:16;95633.56;;;6.81;60.12
71915;BME280;60387;49.994;14.660;2023-12-22T09:47:50;95621.44;;;6.95;59.88
71915;BME280;60387;49.994;14.660;2023-12-22T09:50:24;95620.59;;;7.03;59.51
71915;BME280;60387;49.994;14.660;2023-12-22T09:52:57;95603.31;;;7.04;58.99
71915;BME280;60387;49.994;14.660;2023-12-22T09:55:31;95612.75;;;7.10;58.87
71915;BME280;60387;49.994;14.660;2023-12-22T09:58:06;95609.59;;;7.08;58.71
71915;BME280;60387;49.994;14.660;2023-12-22T10:00:41;95616.56;;;7.09;58.53
71915;BME280;60387;49.994;14.660;2023-12-22T10:03:15;95618.22;;;7.02;58.34
71915;BME280;60387;49.994;14.660;2023-12-22T10:05:49;95606.47;;;7.06;58.20
71915;BME280;60387;49.994;14.660;2023-12-22T10:08:22;95594.91;;;7.06;58.31
71915;BME280;60387;49.994;14.660;2023-12-22T10:10:56;95596.81;;;7.05;57.96
71915;BME280;60387;49.994;14.660;2023-12-22T10:13:33;95615.00;;;7.08;58.27
71915;BME280;60387;49.994;14.660;2023-12-22T10:16:08;95589.38;;;7.02;57.88
71915;BME280;60387;49.994;14.660;2023-12-22T10:18:41;95560.84;;;6.89;58.07
71915;BME280;60387;49.994;14.660;2023-12-22T10:21:15;95608.63;;;6.72;58.42
71915;BME280;60387;49.994;14.660;2023-12-22T10:23:48;95602.94;;;6.73;58.04
71915;BME280;60387;49.994;14.660;2023-12-22T10:26:21;95598.00;;;6.55;58.09
71915;BME280;60387;49.994;14.660;2023-12-22T10:28:55;95625.03;;;6.58;58.28
71915;BME280;60387;49.994;14.660;2023-12-22T10:31:39;95628.47;;;6.38;58.33
71915;BME280;60387;49.994;14.660;2023-12-22T10:34:12;95649.00;;;6.14;58.56
71915;BME280;60387;49.994;14.660;2023-12-22T10:36:46;95649.31;;;6.13;58.70
71915;BME280;60387;49.994;14.660;2023-12-22T10:39:19;95635.66;;;5.97;60.03
71915;BME280;60387;49.994;14.660;2023-12-22T10:41:52;95669.78;;;5.97;60.43
71915;BME280;60387;49.994;14.660;2023-12-22T10:44:27;95654.16;;;5.82;61.16
71915;BME280;60387;49.994;14.660;2023-12-22T10:47:00;95681.84;;;5.82;62.19
71915;BME280;60387;49.994;14.660;2023-12-22T10:49:36;95659.72;;;5.68;61.89
71915;BME280;60387;49.994;14.660;2023-12-22T10:52:15;95669.84;;;5.63;62.50
71915;BME280;60387;49.994;14.660;2023-12-22T10:54:49;95660.56;;;5.52;62.66
71915;BME280;60387;49.994;14.660;2023-12-22T10:57:22;95649.63;;;5.65;62.30
71915;BME280;60387;49.994;14.660;2023-12-22T10:59:56;95669.97;;;5.75;61.64
71915;BME280;60387;49.994;14.660;2023-12-22T11:02:33;95666.81;;;5.73;61.28
71915;BME280;60387;49.994;14.660;2023-12-22T11:05:10;95675.81;;;5.68;60.94
71915;BME280;60387;49.994;14.660;2023-12-22T11:07:48;95675.81;;;5.77;60.75
71915;BME280;60387;49.994;14.660;2023-12-22T11:10:22;95701.41;;;5.83;60.68
71915;BME280;60387;49.994;14.660;2023-12-22T11:12:57;95695.13;;;5.62;61.77
71915;BME280;60387;49.994;14.660;2023-12-22T11:15:30;95704.75;;;5.63;62.04
71915;BME280;60387;49.994;14.660;2023-12-22T11:18:05;95698.28;;;5.47;62.37
71915;BME280;60387;49.994;14.660;2023-12-22T11:20:41;95711.72;;;5.47;62.39
71915;BME280;60387;49.994;14.660;2023-12-22T11:23:15;95716.78;;;5.48;62.57
71915;BME280;60387;49.994;14.660;2023-12-22T11:25:50;95713.78;;;5.50;63.08
71915;BME280;60387;49.994;14.660;2023-12-22T11:28:25;95708.25;;;5.46;63.11
71915;BME280;60387;49.994;14.660;2023-12-22T11:30:59;95700.97;;;5.47;63.15
71915;BME280;60387;49.994;14.660;2023-12-22T11:33:34;95693.06;;;5.50;62.91
71915;BME280;60387;49.994;14.660;2023-12-22T11:36:09;95679.34;;;5.52;62.46
71915;BME280;60387;49.994;14.660;2023-12-22T11:38:45;95686.28;;;5.53;63.13
71915;BME280;60387;49.994;14.660;2023-12-22T11:41:24;95709.34;;;5.54;62.57
71915;BME280;60387;49.994;14.660;2023-12-22T11:43:59;95698.44;;;5.59;62.98
71915;BME280;60387;49.994;14.660;2023-12-22T11:46:33;95730.03;;;5.62;62.68
71915;BME280;60387;49.994;14.660;2023-12-22T11:49:06;95702.88;;;5.63;62.96
71915;BME280;60387;49.994;14.660;2023-12-22T11:51:40;95703.47;;;5.69;62.67
71915;BME280;60387;49.994;14.660;2023-12-22T11:54:51;95687.97;;;5.83;63.23
71915;BME280;60387;49.994;14.660;2023-12-22T12:00:02;95689.31;;;6.14;62.46
71915;BME280;60387;49.994;14.660;2023-12-22T12:02:36;95665.41;;;6.21;62.52
71915;BME280;60387;49.994;14.660;2023-12-22T12:05:12;95679.78;;;6.25;61.94
71915;BME280;60387;49.994;14.660;2023-12-22T12:07:47;95677.09;;;6.25;61.69
71915;BME280;60387;49.994;14.660;2023-12-22T12:15:41;95674.13;;;6.47;61.68
71915;BME280;60387;49.994;14.660;2023-12-22T12:18:14;95661.09;;;6.57;61.58
71915;BME280;60387;49.994;14.660;2023-12-22T12:20:48;95656.47;;;6.66;61.23
71915;BME280;60387;49.994;14.660;2023-12-22T12:23:24;95649.59;;;6.77;60.92
71915;BME280;60387;49.994;14.660;2023-12-22T12:25:58;95634.50;;;6.85;60.62
71915;BME280;60387;49.994;14.660;2023-12-22T12:28:32;95638.91;;;6.89;60.63
71915;BME280;60387;49.994;14.660;2023-12-22T12:31:07;95626.81;;;6.95;60.22
71915;BME280;60387;49.994;14.660;2023-12-22T12:33:41;95626.63;;;7.00;59.85
71915;BME280;60387;49.994;14.660;2023-12-22T12:36:15;95622.81;;;7.01;60.16
71915;BME280;60387;49.994;14.660;2023-12-22T12:38:55;95619.47;;;7.04;60.07
71915;BME280;60387;49.994;14.660;2023-12-22T12:41:32;95624.72;;;7.01;59.61
71915;BME280;60387;49.994;14.660;2023-12-22T12:44:06;95618.00;;;7.07;59.74
71915;BME280;60387;49.994;14.660;2023-12-22T12:46:40;95619.25;;;7.09;59.93
71915;BME280;60387;49.994;14.660;2023-12-22T12:49:16;95608.16;;;7.11;59.44
71915;BME280;60387;49.994;14.660;2023-12-22T12:51:49;95614.81;;;7.13;59.46
71915;BME280;60387;49.994;14.660;2023-12-22T12:54:23;95610.66;;;7.16;59.48
71915;BME280;60387;49.994;14.660;2023-12-22T12:56:56;95603.81;;;7.18;59.63
71915;BME280;60387;49.994;14.660;2023-12-22T12:59:29;95591.59;;;7.21;59.36
71915;BME280;60387;49.994;14.660;2023-12-22T13:02:03;95606.00;;;7.25;59.10
71915;BME280;60387;49.994;14.660;2023-12-22T13:04:37;95598.38;;;7.27;58.82
71915;BME280;60387;49.994;14.660;2023-12-22T13:07:11;95586.03;;;7.26;58.84
71915;BME280;60387;49.994;14.660;2023-12-22T13:09:44;95593.88;;;7.31;58.28
71915;BME280;60387;49.994;14.660;2023-12-22T13:12:17;95580.53;;;7.34;57.81
71915;BME280;60387;49.994;14.660;2023-12-22T13:14:51;95582.09;;;7.35;58.35
71915;BME280;60387;49.994;14.660;2023-12-22T13:17:24;95571.00;;;7.37;57.97
71915;BME280;60387;49.994;14.660;2023-12-22T13:19:58;95558.00;;;7.39;57.76
71915;BME280;60387;49.994;14.660;2023-12-22T13:22:31;95551.25;;;7.33;57.47
71915;BME280;60387;49.994;14.660;2023-12-22T13:25:05;95562.13;;;7.36;57.56
71915;BME280;60387;49.994;14.660;2023-12-22T13:27:48;95572.91;;;7.36;57.32
71915;BME280;60387;49.994;14.660;2023-12-22T13:30:51;95538.91;;;7.32;57.64
71915;BME280;60387;49.994;14.660;2023-12-22T13:33:24;95557.09;;;7.35;57.83
71915;BME280;60387;49.994;14.660;2023-12-22T13:35:58;95563.72;;;7.37;57.87
71915;BME280;60387;49.994;14.660;2023-12-22T13:38:32;95564.38;;;7.34;57.95
71915;BME280;60387;49.994;14.660;2023-12-22T13:41:07;95551.84;;;7.38;58.10
71915;BME280;60387;49.994;14.660;2023-12-22T13:43:41;95548.22;;;7.34;58.30
71915;BME280;60387;49.994;14.660;2023-12-22T13:46:14;95561.81;;;7.38;58.57
71915;BME280;60387;49.994;14.660;2023-12-22T13:48:48;95576.28;;;7.33;58.98
71915;BME280;60387;49.994;14.660;2023-12-22T13:51:21;95575.81;;;7.31;58.44